createdAt,value
2017-06-05T00:00:02.673Z,1016.2
2017-06-05T00:05:02.985Z,1016.25
2017-06-05T00:10:03.321Z,1016.21
2017-06-05T00:15:02.658Z,1016.24
2017-06-05T00:20:02.987Z,1016.22
2017-06-05T00:25:03.313Z,1016.21
2017-06-05T00:30:02.589Z,1016.17
2017-06-05T00:35:02.957Z,1016.13
2017-06-05T00:40:03.297Z,1016.09
2017-06-05T00:45:02.596Z,1016
2017-06-05T00:50:02.947Z,1016.06
2017-06-05T00:55:03.259Z,1015.98
2017-06-05T01:00:02.609Z,1016.01
2017-06-05T01:05:02.999Z,1016.01
2017-06-05T01:10:03.390Z,1016.05
2017-06-05T01:15:02.709Z,1016.11
2017-06-05T01:20:03.060Z,1016.07
2017-06-05T01:25:03.338Z,1016.02
2017-06-05T01:30:02.654Z,1015.99
2017-06-05T01:35:03.056Z,1016
2017-06-05T01:40:03.392Z,1015.88
2017-06-05T01:45:02.666Z,1015.87
2017-06-05T01:50:02.942Z,1015.89
2017-06-05T01:55:03.305Z,1015.78
2017-06-05T02:00:02.646Z,1015.84
2017-06-05T02:05:03.115Z,1015.75
2017-06-05T02:10:03.532Z,1015.84
2017-06-05T02:15:02.855Z,1015.79
2017-06-05T02:20:03.287Z,1015.83
2017-06-05T02:25:02.698Z,1015.74
2017-06-05T02:30:03.001Z,1015.8
2017-06-05T02:35:03.347Z,1015.79
2017-06-05T02:40:02.671Z,1015.76
2017-06-05T02:45:03.050Z,1015.79
2017-06-05T02:50:03.418Z,1015.72
2017-06-05T02:55:02.743Z,1015.71
2017-06-05T03:00:03.028Z,1015.75
2017-06-05T03:05:03.344Z,1015.73
2017-06-05T03:10:02.678Z,1015.72
2017-06-05T03:15:03.077Z,1015.66
2017-06-05T03:20:03.463Z,1015.69
2017-06-05T03:25:02.900Z,1015.58
2017-06-05T03:30:03.265Z,1015.6
2017-06-05T03:35:02.705Z,1015.49
2017-06-05T03:40:03.122Z,1015.41
2017-06-05T03:45:03.465Z,1015.39
2017-06-05T03:50:02.770Z,1015.32
2017-06-05T03:55:03.140Z,1015.3
2017-06-05T04:00:03.668Z,1015.28
2017-06-05T04:05:02.985Z,1015.29
2017-06-05T04:10:03.480Z,1015.27
2017-06-05T04:15:02.921Z,1015.24
2017-06-05T04:20:03.254Z,1015.24
2017-06-05T04:25:02.678Z,1015.21
2017-06-05T04:30:03.047Z,1015.27
2017-06-05T04:35:03.472Z,1015.28
2017-06-05T04:40:02.953Z,1015.24
2017-06-05T04:45:03.406Z,1015.33
2017-06-05T04:50:02.731Z,1015.26
2017-06-05T04:55:03.091Z,1015.31
2017-06-05T05:00:03.477Z,1015.22
2017-06-05T05:05:02.845Z,1015.25
2017-06-05T05:10:03.232Z,1015.17
2017-06-05T05:15:02.535Z,1015.18
2017-06-05T05:20:02.955Z,1015.19
2017-06-05T05:25:03.334Z,1015.19
2017-06-05T05:30:02.790Z,1015.23
2017-06-05T05:35:03.233Z,1015.29
2017-06-05T05:40:02.625Z,1015.25
2017-06-05T05:45:02.943Z,1015.22
2017-06-05T05:50:03.308Z,1015.25
2017-06-05T05:55:02.700Z,1015.18
2017-06-05T06:00:03.145Z,1015.25
2017-06-05T06:05:03.494Z,1015.27
2017-06-05T06:10:02.914Z,1015.26
2017-06-05T06:15:03.311Z,1015.29
2017-06-05T06:20:02.666Z,1015.22
2017-06-05T06:25:02.979Z,1015.28
2017-06-05T06:30:03.283Z,1015.12
2017-06-05T06:35:02.577Z,1015.09
2017-06-05T06:40:02.978Z,1015.12
2017-06-05T06:45:03.374Z,1015.05
2017-06-05T06:50:02.759Z,1015.14
2017-06-05T06:55:03.108Z,1015.17
2017-06-05T07:00:03.429Z,1015.09
2017-06-05T07:05:02.817Z,1015.07
2017-06-05T07:10:03.168Z,1015.04
2017-06-05T07:15:03.458Z,1015
2017-06-05T07:20:02.813Z,1014.97
2017-06-05T07:25:03.144Z,1015.03
2017-06-05T07:30:03.592Z,1014.9
2017-06-05T07:35:02.985Z,1014.91
2017-06-05T07:40:03.297Z,1014.85
2017-06-05T07:45:02.678Z,1014.78
2017-06-05T07:50:03.072Z,1014.75
2017-06-05T07:55:03.424Z,1014.74
2017-06-05T08:00:02.773Z,1014.73
2017-06-05T08:05:03.241Z,1014.84
2017-06-05T08:10:02.677Z,1014.79
2017-06-05T08:15:03.132Z,1014.8
2017-06-05T08:20:03.474Z,1014.53
2017-06-05T08:30:03.341Z,1014.53
2017-06-05T08:35:02.682Z,1014.44
2017-06-05T08:40:03.069Z,1014.45
2017-06-05T08:45:03.484Z,1014.37
2017-06-05T08:50:02.821Z,1014.32
2017-06-05T08:55:03.269Z,1014.3
2017-06-05T09:00:02.683Z,1014.1
2017-06-05T09:05:03.093Z,1014.03
2017-06-05T09:10:02.569Z,1013.99
2017-06-05T09:15:02.979Z,1013.96
2017-06-05T09:20:03.377Z,1013.75
2017-06-05T09:25:02.758Z,1013.77
2017-06-05T09:30:03.123Z,1013.7
2017-06-05T09:35:03.432Z,1013.76
2017-06-05T09:40:02.865Z,1013.7
2017-06-05T09:45:03.315Z,1013.68
2017-06-05T09:50:02.629Z,1013.64
2017-06-05T09:55:03.059Z,1013.51
2017-06-05T10:00:03.453Z,1013.61
2017-06-05T10:05:02.782Z,1013.62
2017-06-05T10:10:03.221Z,1013.55
2017-06-05T10:15:02.589Z,1013.54
2017-06-05T10:20:02.938Z,1013.55
2017-06-05T10:25:03.401Z,1013.49
2017-06-05T10:35:02.822Z,1013.35
2017-06-05T10:40:02.546Z,1013.37
2017-06-05T10:45:02.893Z,1013.16
2017-06-05T10:50:03.267Z,1013.08
2017-06-05T10:55:02.552Z,1013.16
2017-06-05T11:00:02.907Z,1013.11
2017-06-05T11:05:03.296Z,1013.13
2017-06-05T11:10:03.074Z,1013.1
2017-06-05T11:15:03.535Z,1013.01
2017-06-05T11:20:02.895Z,1012.92
2017-06-05T11:25:03.285Z,1012.73
2017-06-05T11:30:03.004Z,1012.62
2017-06-05T11:35:03.517Z,1012.7
2017-06-05T11:40:03.130Z,1012.62
2017-06-05T11:45:02.821Z,1012.48
2017-06-05T11:50:03.435Z,1012.54
2017-06-05T11:55:03.038Z,1012.52
2017-06-05T12:00:03.289Z,1012.36
2017-06-05T12:05:02.704Z,1012.36
2017-06-05T12:10:03.487Z,1012.21
2017-06-05T12:15:02.681Z,1012.3
2017-06-05T12:20:03.304Z,1012.26
2017-06-05T12:25:03.241Z,1012.26
2017-06-05T12:30:03.271Z,1012.19
2017-06-05T12:35:03.283Z,1012.13
2017-06-05T12:40:02.866Z,1012.03
2017-06-05T12:45:02.901Z,1012.03
2017-06-05T12:50:02.946Z,1012.02
2017-06-05T12:55:02.644Z,1011.88
2017-06-05T13:00:02.598Z,1011.95
2017-06-05T13:05:03.209Z,1012.02
2017-06-05T13:10:03.264Z,1011.86
2017-06-05T13:15:03.015Z,1011.71
2017-06-05T13:20:03.312Z,1011.7
2017-06-05T13:25:03.320Z,1011.64
2017-06-05T13:30:03.284Z,1011.6
2017-06-05T13:35:02.971Z,1011.57
2017-06-05T13:40:03.263Z,1011.53
2017-06-05T13:45:03.416Z,1011.51
2017-06-05T13:50:03.047Z,1011.51
2017-06-05T13:55:03.392Z,1011.49
2017-06-05T14:00:02.714Z,1011.39
2017-06-05T14:05:02.537Z,1011.2
2017-06-05T14:10:02.895Z,1011.17
2017-06-05T14:15:03.493Z,1011.19
2017-06-05T14:20:02.594Z,1011.11
2017-06-05T14:25:03.325Z,1010.99
2017-06-05T14:30:03.271Z,1011.03
2017-06-05T14:35:03.253Z,1010.91
2017-06-05T14:40:02.644Z,1010.88
2017-06-05T14:45:02.818Z,1010.89
2017-06-05T14:50:02.893Z,1010.81
2017-06-05T14:55:02.602Z,1010.61
2017-06-05T15:00:03.375Z,1010.7
2017-06-05T15:05:02.857Z,1010.53
2017-06-05T15:10:03.252Z,1010.5
2017-06-05T15:15:03.202Z,1010.32
2017-06-05T15:20:03.042Z,1010.19
2017-06-05T15:25:03.178Z,1010.13
2017-06-05T15:30:03.411Z,1010.01
2017-06-05T15:35:02.657Z,1010.04
2017-06-05T15:40:02.935Z,1009.9
2017-06-05T15:45:03.065Z,1010.01
2017-06-05T15:50:02.607Z,1009.85
2017-06-05T15:55:03.467Z,1009.85
2017-06-05T16:00:02.684Z,1009.76
2017-06-05T16:05:03.366Z,1009.72
2017-06-05T16:10:03.338Z,1009.52
2017-06-05T16:15:03.147Z,1009.45
2017-06-05T16:20:02.764Z,1009.52
2017-06-05T16:25:03.277Z,1009.36
2017-06-05T16:30:02.736Z,1009.42
2017-06-05T16:35:03.167Z,1009.18
2017-06-05T16:40:02.529Z,1009.21
2017-06-05T16:45:02.945Z,1009.07
2017-06-05T16:50:03.437Z,1009.1
2017-06-05T16:55:02.867Z,1009.01
2017-06-05T17:00:03.262Z,1008.9
2017-06-05T17:05:02.602Z,1008.89
2017-06-05T17:10:02.993Z,1008.85
2017-06-05T17:15:03.494Z,1008.74
2017-06-05T17:20:02.821Z,1008.79
2017-06-05T17:25:03.120Z,1008.78
2017-06-05T17:30:03.425Z,1008.64
2017-06-05T17:35:02.724Z,1008.58
2017-06-05T17:40:03.251Z,1008.49
2017-06-05T17:45:02.762Z,1008.43
2017-06-05T17:50:03.135Z,1008.36
2017-06-05T17:55:03.500Z,1008.35
2017-06-05T18:00:02.970Z,1008.43
2017-06-05T18:05:03.417Z,1008.32
2017-06-05T18:10:02.901Z,1008.25
2017-06-05T18:15:03.221Z,1008.19
2017-06-05T18:20:02.688Z,1008.22
2017-06-05T18:25:03.402Z,1008.16
2017-06-05T18:30:02.873Z,1008.06
2017-06-05T18:35:02.592Z,1008.07
2017-06-05T18:40:03.442Z,1008
2017-06-05T18:45:03.267Z,1007.92
2017-06-05T18:50:03.136Z,1007.86
2017-06-05T18:55:02.956Z,1007.77
2017-06-05T19:00:03.218Z,1007.8
2017-06-05T19:05:02.919Z,1007.76
2017-06-05T19:10:02.538Z,1007.68
2017-06-05T19:15:02.827Z,1007.64
2017-06-05T19:20:02.874Z,1007.54
2017-06-05T19:25:03.456Z,1007.49
2017-06-05T19:30:02.749Z,1007.46
2017-06-05T19:35:02.592Z,1007.35
2017-06-05T19:40:03.486Z,1007.36
2017-06-05T19:45:02.969Z,1007.36
2017-06-05T19:50:02.870Z,1007.27
2017-06-05T19:55:03.480Z,1007.25
2017-06-05T20:00:03.462Z,1007.2
2017-06-05T20:05:03.360Z,1007.21
2017-06-05T20:10:03.065Z,1007.26
2017-06-05T20:15:03.031Z,1007.18
2017-06-05T20:20:02.985Z,1007.11
2017-06-05T20:25:03.129Z,1007.1
2017-06-05T20:30:03.089Z,1006.97
2017-06-05T20:35:03.477Z,1006.95
2017-06-05T20:40:02.995Z,1006.92
2017-06-05T20:45:02.715Z,1006.87
2017-06-05T20:50:03.164Z,1006.74
2017-06-05T20:55:03.067Z,1006.61
2017-06-05T21:00:03.158Z,1006.63
2017-06-05T21:05:03.184Z,1006.55
2017-06-05T21:10:02.984Z,1006.46
2017-06-05T21:15:03.551Z,1006.36
2017-06-05T21:20:02.624Z,1006.28
2017-06-05T21:25:03.422Z,1006.18
2017-06-05T21:30:02.924Z,1006.17
2017-06-05T21:35:02.569Z,1006.16
2017-06-05T21:40:03.049Z,1006.08
2017-06-05T21:45:02.491Z,1006.03
2017-06-05T21:50:02.928Z,1005.96
2017-06-05T21:55:03.387Z,1005.86
2017-06-05T22:00:02.724Z,1005.7
2017-06-05T22:05:03.144Z,1005.68
2017-06-05T22:10:02.521Z,1005.6
2017-06-05T22:15:03.007Z,1005.57
2017-06-05T22:20:03.333Z,1005.51
2017-06-05T22:25:02.685Z,1005.38
2017-06-05T22:30:03.130Z,1005.31
2017-06-05T22:35:02.612Z,1005.23
2017-06-05T22:40:03.076Z,1005.16
2017-06-05T22:45:03.420Z,1005.05
2017-06-05T22:50:02.810Z,1005.02
2017-06-05T22:55:03.174Z,1004.93
2017-06-05T23:00:02.683Z,1004.87
2017-06-05T23:05:02.984Z,1004.75
2017-06-05T23:10:02.489Z,1004.64
2017-06-05T23:15:02.920Z,1004.6
2017-06-05T23:20:03.419Z,1004.58
2017-06-05T23:25:02.736Z,1004.47
2017-06-05T23:30:03.101Z,1004.4
2017-06-05T23:35:02.511Z,1004.39
2017-06-05T23:40:02.962Z,1004.37
2017-06-05T23:45:03.356Z,1004.27
2017-06-05T23:50:02.708Z,1004.18
2017-06-05T23:55:03.111Z,1004.14
